Time;durP1;ratioP1;P1;durP2;ratioP2;P2;SDS_P1;SDS_P2;PMS_P1;PMS_P2;Temp;Humidity;BMP_temperature;BMP_pressure;BME280_temperature;BME280_humidity;BME280_pressure;Samples;Min_cycle;Max_cycle;Signal;HPM_P1;HPM_P2
2022/05/24 00:00:16;;;;;;;49.78;37.28;;;;;;;13.32;96.39;100060.25;5013901;28;20045;-85
2022/05/24 00:02:42;;;;;;;53.00;37.30;;;;;;;13.29;96.16;100057.75;5010140;28;20068;-85
2022/05/24 00:05:13;;;;;;;;;;;;;;;13.37;95.16;100054.72;5051764;28;20028;-85
2022/05/24 00:07:39;;;;;;;42.13;34.67;;;;;;;13.29;95.86;100055.09;5050204;28;19913;-85
2022/05/24 00:10:07;;;;;;;40.83;31.08;;;;;;;13.25;95.41;100049.03;5001099;28;20037;-86
2022/05/24 00:12:33;;;;;;;42.60;31.48;;;;;;;13.25;95.59;100050.78;5033633;28;20056;-86
2022/05/24 00:17:51;;;;;;;37.35;29.30;;;;;;;13.18;94.41;100038.72;5020255;28;20041;-84
2022/05/24 00:20:17;;;;;;;33.65;27.65;;;;;;;13.13;94.53;100037.13;5020216;28;20318;-85
2022/05/24 00:22:42;;;;;;;29.25;22.98;;;;;;;13.13;94.32;100039.81;5038182;28;20182;-86
2022/05/24 00:25:09;;;;;;;35.05;25.73;;;;;;;13.03;94.88;100034.94;5004737;28;20025;-84
2022/05/24 00:27:35;;;;;;;35.08;24.08;;;;;;;13.00;94.20;100040.41;5004821;28;20144;-86
2022/05/24 00:30:00;;;;;;;30.63;20.30;;;;;;;12.97;93.69;100041.41;5037451;28;20115;-83
2022/05/24 00:32:26;;;;;;;29.65;20.77;;;;;;;12.92;93.98;100046.06;5055375;28;20037;-85
2022/05/24 00:34:51;;;;;;;28.50;20.30;;;;;;;12.81;93.90;100043.00;5004400;28;20040;-85
2022/05/24 00:37:21;;;;;;;26.55;19.58;;;;;;;12.84;93.91;100042.88;5020766;28;20132;-84
2022/05/24 00:39:47;;;;;;;28.07;18.67;;;;;;;12.80;93.56;100042.16;5036485;28;20086;-85
2022/05/24 00:42:19;;;;;;;23.05;17.63;;;;;;;12.75;93.84;100037.97;5003827;28;20056;-85
2022/05/24 00:44:58;;;;;;;25.35;17.38;;;;;;;12.69;94.18;100036.44;5053088;28;20085;-85
2022/05/24 00:47:33;;;;;;;28.33;16.80;;;;;;;12.69;94.06;100039.09;5054687;28;20032;-84
2022/05/24 00:50:06;;;;;;;25.13;17.23;;;;;;;12.63;93.84;100034.03;5020475;28;20128;-84
2022/05/24 00:52:48;;;;;;;23.70;15.23;;;;;;;12.59;94.03;100046.59;5036832;28;20064;-84
2022/05/24 00:55:16;;;;;;;27.48;15.45;;;;;;;12.56;93.56;100048.50;5036886;28;20041;-85
2022/05/24 00:57:51;;;;;;;25.50;15.25;;;;;;;12.54;93.46;100050.41;5053624;28;20029;-83
2022/05/24 01:00:21;;;;;;;23.25;13.75;;;;;;;12.53;93.48;100051.31;5043230;28;20117;-84
2022/05/24 01:02:48;;;;;;;22.08;14.32;;;;;;;12.48;93.81;100046.19;5043162;28;20059;-84
2022/05/24 01:05:27;;;;;;;23.75;13.93;;;;;;;12.44;93.94;100041.97;5053621;28;20033;-85
2022/05/24 01:07:53;;;;;;;20.48;13.68;;;;;;;12.42;93.39;100033.19;5036793;28;20060;-84
2022/05/24 01:10:30;;;;;;;20.67;12.55;;;;;;;12.39;93.64;100034.19;5053605;28;20155;-85
2022/05/24 01:13:04;;;;;;;20.95;12.45;;;;;;;12.34;93.46;100036.16;5036567;28;20124;-84
2022/05/24 01:15:31;;;;;;;19.25;11.95;;;;;;;12.29;93.58;100035.50;5036631;28;20099;-85
2022/05/24 01:17:59;;;;;;;21.17;12.10;;;;;;;12.27;92.96;100038.22;5036584;28;20079;-83
2022/05/24 01:20:25;;;;;;;20.52;10.90;;;;;;;12.24;92.71;100033.03;5036534;28;20131;-84
2022/05/24 01:23:02;;;;;;;18.98;9.60;;;;;;;12.21;92.65;100048.19;5036418;28;20369;-84
2022/05/24 01:25:36;;;;;;;17.75;9.70;;;;;;;12.17;92.22;100043.97;5054301;28;20075;-84
2022/05/24 01:28:09;;;;;;;21.85;10.40;;;;;;;12.12;92.20;100025.56;5036362;28;20112;-84
2022/05/24 01:30:35;;;;;;;20.92;9.70;;;;;;;12.11;92.24;100033.59;5035187;28;20115;-83
2022/05/24 01:38:30;;;;;;;18.98;9.00;;;;;;;11.96;92.49;100059.81;5058829;28;20045;-83
2022/05/24 01:40:55;;;;;;;17.23;7.95;;;;;;;11.95;92.17;100068.72;5056153;28;20456;-83
2022/05/24 01:43:26;;;;;;;18.20;9.18;;;;;;;11.90;92.30;100069.81;5039198;28;20090;-84
2022/05/24 01:45:59;;;;;;;18.08;8.77;;;;;;;11.87;92.21;100060.22;5056038;28;20032;-83
2022/05/24 01:48:33;;;;;;;15.70;7.85;;;;;;;11.82;92.22;100065.66;5039254;28;20143;-84
2022/05/24 01:51:02;;;;;;;14.80;8.07;;;;;;;11.80;91.96;100064.84;5055842;28;20123;-84
2022/05/24 01:53:37;;;;;;;15.40;7.60;;;;;;;11.81;92.32;100065.69;5073789;28;20016;-84
2022/05/24 01:56:06;;;;;;;11.48;6.90;;;;;;;11.78;91.92;100069.34;5072439;28;20165;-83
2022/05/24 01:58:35;;;;;;;15.13;7.60;;;;;;;11.77;91.94;100058.78;5039488;28;20047;-84
2022/05/24 02:01:43;;;;;;;15.35;7.70;;;;;;;11.75;91.87;100058.00;5039200;28;20071;-81
2022/05/24 02:04:14;;;;;;;12.73;6.65;;;;;;;11.70;91.65;100050.22;5018906;28;20044;-82
2022/05/24 02:07:20;;;;;;;16.23;7.25;;;;;;;11.68;91.33;100051.19;5018703;28;20041;-81
2022/05/24 02:09:48;;;;;;;13.30;5.32;;;;;;;11.63;91.08;100046.94;5031264;28;20048;-82
2022/05/24 02:12:28;;;;;;;13.07;6.03;;;;;;;11.60;91.26;100048.84;5035440;28;20052;-81
2022/05/24 02:15:00;;;;;;;14.55;6.00;;;;;;;11.54;91.53;100047.28;5035252;28;20041;-82
2022/05/24 02:17:39;;;;;;;12.63;5.63;;;;;;;11.57;90.81;100056.91;5039404;28;20029;-81
2022/05/24 02:20:08;;;;;;;10.48;5.60;;;;;;;11.51;91.64;100062.47;5067113;28;20036;-81
2022/05/24 02:22:34;;;;;;;12.10;5.10;;;;;;;11.49;91.11;100065.16;5038831;28;20318;-81
2022/05/24 02:25:10;;;;;;;12.25;5.40;;;;;;;11.48;91.48;100067.88;5022024;28;20039;-81
2022/05/24 02:27:43;;;;;;;13.00;4.82;;;;;;;11.44;91.42;100067.13;5038231;28;20064;-81
2022/05/24 02:30:13;;;;;;;12.90;4.88;;;;;;;11.46;91.32;100069.72;5072927;28;20159;-82
2022/05/24 02:32:39;;;;;;;12.93;5.17;;;;;;;11.46;91.44;100064.41;5038809;28;20469;-81
2022/05/24 02:35:05;;;;;;;13.43;4.75;;;;;;;11.43;91.23;100056.59;5038468;28;20032;-81
2022/05/24 02:37:30;;;;;;;13.00;4.68;;;;;;;11.43;91.13;100051.28;5038139;28;20036;-82
2022/05/24 02:42:40;;;;;;;9.80;4.13;;;;;;;11.40;90.96;100063.72;5040041;28;20481;-81
2022/05/24 02:45:06;;;;;;;14.00;4.47;;;;;;;11.35;91.22;100057.75;5021539;28;20032;-81
2022/05/24 02:47:32;;;;;;;11.55;3.85;;;;;;;11.37;90.78;100066.50;5054602;28;20048;-81
2022/05/24 02:49:57;;;;;;;12.38;4.10;;;;;;;11.32;90.97;100062.28;5072243;28;20063;-82
2022/05/24 02:52:23;;;;;;;19.88;4.53;;;;;;;11.32;90.60;100065.78;5001729;28;20446;-81
2022/05/24 02:54:48;;;;;;;12.93;4.35;;;;;;;11.32;90.87;100065.78;5017790;28;20400;-81
2022/05/24 02:57:14;;;;;;;12.25;4.00;;;;;;;11.30;90.63;100070.31;5034136;28;20034;-82
2022/05/24 02:59:39;;;;;;;9.82;3.67;;;;;;;11.30;90.71;100072.94;5032770;28;20111;-81
2022/05/24 03:02:05;;;;;;;11.30;3.60;;;;;;;11.29;90.82;100068.56;4998125;28;20128;-81
2022/05/24 03:04:31;;;;;;;12.88;3.63;;;;;;;11.26;90.65;100066.03;4981677;28;20482;-81
2022/05/24 03:09:42;;;;;;;13.85;4.00;;;;;;;11.29;90.27;100057.94;4976584;28;20049;-81
2022/05/24 03:14:55;;;;;;;12.38;3.75;;;;;;;11.26;89.92;100066.03;5014104;28;20064;-81
2022/05/24 03:17:22;;;;;;;10.52;3.65;;;;;;;11.29;90.18;100075.66;4989476;28;20248;-81
2022/05/24 03:19:49;;;;;;;14.05;3.60;;;;;;;11.24;90.87;100078.47;5051298;28;20032;-81
2022/05/24 03:22:14;;;;;;;12.75;3.90;;;;;;;11.22;90.77;100072.34;5033738;28;20044;-81
2022/05/24 03:24:41;;;;;;;12.73;3.40;;;;;;;11.21;90.65;100060.03;5013790;28;20033;-81
2022/05/24 03:27:13;;;;;;;12.05;3.45;;;;;;;11.21;90.32;100073.28;4997511;28;20033;-81
2022/05/24 03:29:44;;;;;;;13.52;3.47;;;;;;;11.20;90.58;100063.59;5031611;28;20029;-81
2022/05/24 03:32:12;;;;;;;10.95;2.88;;;;;;;11.18;91.00;100071.63;5013678;28;20041;-82
2022/05/24 03:34:39;;;;;;;12.27;3.25;;;;;;;11.18;90.97;100073.41;5014263;28;20048;-81
2022/05/24 03:37:05;;;;;;;10.80;3.55;;;;;;;11.22;90.76;100080.31;5033484;28;20025;-81
2022/05/24 03:39:33;;;;;;;16.23;4.47;;;;;;;11.16;91.35;100073.44;5033760;28;20385;-81
2022/05/24 03:41:59;;;;;;;10.68;3.75;;;;;;;11.18;91.43;100082.22;5016995;28;20338;-81
2022/05/24 03:44:25;;;;;;;10.40;3.78;;;;;;;11.19;91.42;100081.28;5033383;28;20041;-81
2022/05/24 03:46:53;;;;;;;11.23;4.07;;;;;;;11.19;91.80;100080.41;5033544;28;20507;-81
2022/05/24 03:49:19;;;;;;;18.02;4.65;;;;;;;11.19;91.88;100077.78;5033274;28;20039;-81
2022/05/24 03:51:45;;;;;;;14.63;4.75;;;;;;;11.18;91.36;100074.25;5033540;28;20504;-81
2022/05/24 03:54:12;;;;;;;17.20;5.43;;;;;;;11.18;91.67;100078.72;4999877;28;20118;-82
2022/05/24 03:56:39;;;;;;;12.27;4.57;;;;;;;11.20;91.22;100082.13;5050014;28;20044;-81
2022/05/24 03:59:05;;;;;;;11.30;4.50;;;;;;;11.21;91.09;100081.22;5049783;28;20472;-81
2022/05/24 04:01:31;;;;;;;15.43;6.28;;;;;;;11.20;90.55;100108.63;5017164;28;20053;-81
2022/05/24 04:04:00;;;;;;;16.00;6.22;;;;;;;11.19;91.57;100113.09;5033001;28;20040;-81
2022/05/24 04:06:26;;;;;;;16.65;5.63;;;;;;;11.27;90.91;100104.00;5016981;28;20048;-81
2022/05/24 04:08:51;;;;;;;17.52;6.85;;;;;;;11.25;91.31;100095.22;5033100;28;20128;-81
2022/05/24 04:11:17;;;;;;;15.80;6.05;;;;;;;11.28;90.86;100124.28;5000495;28;20131;-81
2022/05/24 04:13:42;;;;;;;10.35;4.75;;;;;;;11.30;90.87;100133.91;5016843;28;20135;-81
2022/05/24 04:16:09;;;;;;;12.90;5.38;;;;;;;11.33;90.61;100130.28;5049637;28;20144;-81
2022/05/24 04:18:36;;;;;;;13.25;6.13;;;;;;;11.29;91.23;100139.25;5034488;28;20021;-81
2022/05/24 04:21:02;;;;;;;18.83;5.40;;;;;;;11.32;90.97;100137.34;5033035;28;20055;-81
2022/05/24 04:23:28;;;;;;;14.00;6.53;;;;;;;11.30;91.08;100127.72;5033157;28;20053;-81
2022/05/24 04:25:54;;;;;;;14.90;6.05;;;;;;;11.27;90.75;100126.06;5016902;28;20037;-82
2022/05/24 04:28:21;;;;;;;17.60;5.97;;;;;;;11.26;90.81;100105.78;5016689;28;20033;-81
2022/05/24 04:30:48;;;;;;;12.50;5.43;;;;;;;11.26;90.87;100097.84;5032962;28;20037;-81
2022/05/24 04:33:15;;;;;;;16.98;6.18;;;;;;;11.26;90.50;100092.53;5016745;28;20047;-81
2022/05/24 04:35:41;;;;;;;15.68;6.63;;;;;;;11.24;90.53;100104.97;5029497;28;20057;-82
2022/05/24 04:38:07;;;;;;;15.10;6.00;;;;;;;11.21;91.01;100107.75;4996776;28;20449;-81
2022/05/24 04:43:16;;;;;;;13.32;6.07;;;;;;;11.23;90.54;100136.84;4985460;28;20129;-81
2022/05/24 04:45:42;;;;;;;16.30;6.72;;;;;;;11.22;91.62;100151.00;5013522;28;20553;-81
2022/05/24 04:48:08;;;;;;;14.85;6.53;;;;;;;11.23;90.86;100144.81;5013061;28;20033;-81
2022/05/24 04:50:37;;;;;;;14.50;5.90;;;;;;;11.23;91.08;100135.06;5012626;28;20040;-81
2022/05/24 04:53:03;;;;;;;14.35;6.93;;;;;;;11.19;90.94;100126.34;5025841;28;20052;-81
2022/05/24 04:55:29;;;;;;;11.90;5.50;;;;;;;11.22;90.52;100129.81;5035683;28;20021;-83
2022/05/24 04:57:56;;;;;;;13.15;5.50;;;;;;;11.24;90.16;100147.38;5019289;28;20061;-81
2022/05/24 05:00:23;;;;;;;16.40;5.63;;;;;;;11.19;90.69;100144.03;5053278;28;20033;-82
2022/05/24 05:02:49;;;;;;;17.90;5.18;;;;;;;11.23;90.67;100158.06;5052382;28;20041;-81
2022/05/24 05:05:16;;;;;;;14.00;5.22;;;;;;;11.20;90.62;100172.25;5054238;28;20049;-82
2022/05/24 05:07:42;;;;;;;14.45;5.45;;;;;;;11.18;90.49;100182.06;5039342;28;20097;-81
2022/05/24 05:10:10;;;;;;;11.35;5.13;;;;;;;11.21;90.77;100178.44;5022496;28;20083;-81
2022/05/24 05:12:36;;;;;;;15.55;4.95;;;;;;;11.23;90.83;100189.84;5055303;28;20047;-82
2022/05/24 05:15:02;;;;;;;21.98;4.80;;;;;;;11.24;90.16;100184.47;5039100;28;20021;-81
2022/05/24 05:17:28;;;;;;;12.80;4.90;;;;;;;11.19;90.65;100192.59;5047218;28;20040;-82
2022/05/24 05:19:54;;;;;;;13.73;4.13;;;;;;;11.21;90.36;100194.34;5009859;28;20025;-81
2022/05/24 05:22:24;;;;;;;9.52;3.85;;;;;;;11.17;90.71;100206.81;5058018;28;20041;-81
2022/05/24 05:24:52;;;;;;;14.50;4.57;;;;;;;11.22;89.54;100196.06;5041002;28;20021;-82
2022/05/24 05:27:19;;;;;;;14.63;4.75;;;;;;;11.24;89.82;100196.88;5005657;28;20556;-82
2022/05/24 05:32:32;;;;;;;11.25;4.22;;;;;;;11.18;90.00;100185.56;5019109;28;20029;-81
2022/05/24 05:34:59;;;;;;;12.43;4.15;;;;;;;11.23;90.19;100193.38;4999719;28;20120;-81
2022/05/24 05:37:27;;;;;;;11.85;3.97;;;;;;;11.27;89.86;100204.72;5015854;28;20091;-82
2022/05/24 05:39:52;;;;;;;17.00;4.78;;;;;;;11.28;89.23;100199.38;5015723;28;20062;-82
2022/05/24 05:42:19;;;;;;;14.52;4.10;;;;;;;11.22;89.73;100183.66;4999572;28;20182;-82
2022/05/24 05:44:47;;;;;;;13.45;4.65;;;;;;;11.22;89.25;100185.44;5027142;28;20041;-81
2022/05/24 05:47:12;;;;;;;13.68;3.95;;;;;;;11.23;89.85;100179.25;4983494;28;20132;-81
2022/05/24 05:49:41;;;;;;;12.15;4.50;;;;;;;11.22;89.70;100177.50;5015379;28;20136;-81
2022/05/24 05:52:07;;;;;;;9.45;3.28;;;;;;;11.26;88.97;100182.66;4977642;28;20056;-82
2022/05/24 05:54:33;;;;;;;15.55;4.03;;;;;;;11.23;89.57;100185.41;4982999;28;20473;-82
2022/05/24 05:57:00;;;;;;;12.43;3.28;;;;;;;11.25;88.81;100195.94;4982872;28;20061;-81
2022/05/24 05:59:26;;;;;;;17.52;4.00;;;;;;;11.22;89.61;100220.75;5033345;28;20040;-82
2022/05/24 06:01:56;;;;;;;12.23;3.50;;;;;;;11.18;89.59;100221.81;5056040;28;20048;-81
2022/05/24 06:04:22;;;;;;;14.77;3.45;;;;;;;11.19;88.79;100228.84;5057166;28;20028;-81
2022/05/24 06:06:47;;;;;;;13.98;3.28;;;;;;;11.13;89.10;100224.63;5040033;28;20064;-81
2022/05/24 06:09:13;;;;;;;10.68;3.10;;;;;;;11.17;89.00;100252.72;5051846;28;20091;-81
2022/05/24 06:11:41;;;;;;;7.13;2.47;;;;;;;11.19;88.75;100240.28;5002612;28;20040;-81
2022/05/24 06:14:07;;;;;;;9.07;3.05;;;;;;;11.20;88.88;100238.50;5018681;28;20037;-82
2022/05/24 06:16:33;;;;;;;10.10;3.10;;;;;;;11.21;88.82;100242.91;5018127;28;20409;-82
2022/05/24 06:18:59;;;;;;;9.70;2.90;;;;;;;11.23;88.08;100240.22;5029415;28;20033;-81
2022/05/24 06:21:28;;;;;;;10.02;3.30;;;;;;;11.24;87.83;100247.22;5018870;28;20067;-81
2022/05/24 06:23:54;;;;;;;16.63;3.47;;;;;;;11.26;88.09;100240.09;5025980;28;20041;-81
2022/05/24 06:26:21;;;;;;;11.57;3.35;;;;;;;11.31;87.70;100246.97;5040568;28;20029;-81
2022/05/24 06:28:48;;;;;;;14.57;3.90;;;;;;;11.43;87.71;100248.34;5038263;28;20036;-81
2022/05/24 06:31:14;;;;;;;17.65;4.55;;;;;;;11.58;86.52;100244.28;5054863;28;20481;-82
2022/05/24 06:33:39;;;;;;;10.10;4.60;;;;;;;11.72;85.75;100244.66;5021856;28;20032;-80
2022/05/24 06:36:05;;;;;;;18.80;5.25;;;;;;;11.86;85.16;100243.28;5050792;28;20039;-80
2022/05/24 06:38:32;;;;;;;10.15;4.93;;;;;;;12.01;84.79;100250.69;5034758;28;20129;-83
2022/05/24 06:40:57;;;;;;;9.45;4.32;;;;;;;12.14;84.64;100241.38;5034793;28;20037;-83
2022/05/24 06:43:23;;;;;;;12.82;4.43;;;;;;;12.29;82.84;100249.66;5034751;28;20499;-84
2022/05/24 06:45:48;;;;;;;7.93;3.72;;;;;;;12.32;81.26;100254.88;5017783;28;20037;-83
2022/05/24 06:48:14;;;;;;;11.57;4.03;;;;;;;12.34;80.43;100247.69;5017734;28;20051;-83
2022/05/24 06:50:41;;;;;;;8.13;3.28;;;;;;;12.48;79.52;100264.81;5017347;28;20028;-83
2022/05/24 06:53:07;;;;;;;13.95;3.60;;;;;;;12.52;79.83;100264.72;5034041;28;20029;-82
2022/05/24 06:55:32;;;;;;;8.80;4.13;;;;;;;12.66;81.00;100271.22;5017876;28;20032;-83
2022/05/24 06:57:58;;;;;;;12.90;3.13;;;;;;;12.84;79.78;100287.34;5034018;28;20055;-82
2022/05/24 07:03:11;;;;;;;10.57;3.25;;;;;;;12.77;78.33;100294.69;5016257;28;20049;-82
2022/05/24 07:05:37;;;;;;;10.63;3.00;;;;;;;12.78;77.98;100299.06;5030194;28;20071;-82
2022/05/24 07:08:04;;;;;;;12.57;3.65;;;;;;;12.82;76.64;100305.13;5014060;28;20064;-83
2022/05/24 07:10:32;;;;;;;10.90;3.33;;;;;;;12.86;76.65;100299.66;4997689;28;20043;-82
2022/05/24 07:13:00;;;;;;;8.73;2.92;;;;;;;12.86;77.14;100318.25;5030452;28;20041;-82
2022/05/24 07:15:26;;;;;;;20.48;3.33;;;;;;;12.72;75.56;100306.44;5014097;28;20030;-81
2022/05/24 07:17:53;;;;;;;9.30;3.20;;;;;;;12.78;74.90;100311.50;5022129;28;20048;-82
2022/05/24 07:20:18;;;;;;;15.93;3.45;;;;;;;12.83;74.31;100322.81;4977045;28;20099;-81
2022/05/24 07:22:44;;;;;;;12.98;4.57;;;;;;;12.82;74.92;100321.94;5031531;28;20041;-81
2022/05/24 07:25:10;;;;;;;10.80;3.70;;;;;;;12.80;74.90;100321.13;5030808;28;20033;-82
2022/05/24 07:27:36;;;;;;;12.48;3.75;;;;;;;12.95;75.11;100317.00;4997969;28;20080;-82
2022/05/24 07:30:04;;;;;;;8.52;3.55;;;;;;;13.01;76.50;100315.91;5002639;28;20071;-82
2022/05/24 07:32:31;;;;;;;8.90;3.72;;;;;;;13.17;75.76;100318.78;5014818;28;20121;-81
2022/05/24 07:34:59;;;;;;;9.73;3.80;;;;;;;13.37;76.40;100321.53;5032411;28;20064;-85
2022/05/24 07:37:25;;;;;;;9.27;3.90;;;;;;;13.46;73.71;100329.13;5014079;28;20041;-82
2022/05/24 07:45:47;;;;;;;8.73;3.60;;;;;;;13.61;72.34;100334.75;5033410;28;20108;-81
2022/05/24 07:48:05;;;;;;;6.50;3.42;;;;;;;13.66;72.95;100330.09;5033463;28;20037;-82
2022/05/24 07:50:31;;;;;;;8.07;3.67;;;;;;;13.64;72.02;100332.78;5032228;28;20447;-82
2022/05/24 07:52:56;;;;;;;6.68;3.65;;;;;;;13.58;73.00;100321.56;5024939;28;20049;-82
2022/05/24 07:55:22;;;;;;;5.95;3.47;;;;;;;13.59;72.51;100337.44;5016923;28;20025;-82
2022/05/24 07:57:48;;;;;;;9.50;3.78;;;;;;;13.57;72.71;100339.31;4999864;28;20099;-82
2022/05/24 08:00:14;;;;;;;9.77;3.80;;;;;;;13.61;73.49;100324.09;5033356;28;20059;-82
2022/05/24 08:02:40;;;;;;;7.95;3.35;;;;;;;13.66;71.42;100332.75;5016256;28;20144;-82
2022/05/24 08:05:06;;;;;;;8.45;3.20;;;;;;;13.53;69.98;100338.59;5016807;28;20033;-82
2022/05/24 08:07:32;;;;;;;7.32;3.17;;;;;;;13.45;70.44;100342.47;5033609;28;20055;-82
2022/05/24 08:09:57;;;;;;;9.50;4.13;;;;;;;13.39;71.01;100338.28;5000325;28;20440;-82
2022/05/24 08:12:23;;;;;;;6.97;3.65;;;;;;;13.40;71.91;100337.38;5033297;28;20032;-82
2022/05/24 08:14:49;;;;;;;8.50;4.10;;;;;;;13.54;72.64;100347.41;5032969;28;20108;-81
2022/05/24 08:17:15;;;;;;;8.02;3.58;;;;;;;13.61;71.75;100338.25;5038424;28;20564;-82
2022/05/24 08:19:40;;;;;;;6.95;3.85;;;;;;;13.70;71.66;100351.19;5000086;28;20484;-82
2022/05/24 08:22:06;;;;;;;11.35;3.90;;;;;;;13.78;71.25;100356.16;5032968;28;20392;-82
2022/05/24 08:24:33;;;;;;;5.57;3.17;;;;;;;13.85;71.20;100356.78;5048001;28;20040;-82
2022/05/24 08:26:58;;;;;;;8.77;3.10;;;;;;;13.97;70.86;100354.44;5016602;28;20445;-82
2022/05/24 08:29:24;;;;;;;9.50;3.10;;;;;;;14.18;69.95;100359.75;5050701;28;20083;-82
2022/05/24 08:31:50;;;;;;;5.88;3.03;;;;;;;14.37;67.68;100351.81;5016551;28;20041;-82
2022/05/24 08:34:15;;;;;;;7.55;2.60;;;;;;;14.61;66.35;100364.03;5032551;28;20045;-82
2022/05/24 08:36:41;;;;;;;20.02;3.42;;;;;;;14.84;67.06;100362.97;5050348;28;20048;-82
2022/05/24 08:39:06;;;;;;;4.68;2.75;;;;;;;14.84;62.81;100368.28;5033725;28;20384;-82
2022/05/24 08:41:59;;;;;;;8.07;2.83;;;;;;;14.58;63.64;100376.63;5020315;28;20342;-83
2022/05/24 08:50:13;;;;;;;6.47;3.30;;;;;;;14.10;67.23;100394.72;5054229;28;20056;-82
2022/05/24 08:52:51;;;;;;;6.22;3.50;;;;;;;14.19;66.82;100399.63;5050183;28;20056;-81
2022/05/24 08:55:18;;;;;;;11.43;3.45;;;;;;;14.08;66.89;100403.69;5073194;28;20095;-82
2022/05/24 08:57:50;;;;;;;5.78;2.60;;;;;;;14.16;66.17;100415.72;5039638;28;20051;-81
2022/05/24 09:00:22;;;;;;;5.95;2.85;;;;;;;13.94;67.83;100420.25;5035136;28;20190;-81
2022/05/24 09:02:48;;;;;;;5.97;3.40;;;;;;;13.98;68.46;100421.84;5036334;28;20032;-81
2022/05/24 09:05:29;;;;;;;4.55;2.80;;;;;;;14.04;69.34;100428.72;5036264;28;20089;-81
2022/05/24 09:07:58;;;;;;;;;;;;;;;14.14;67.57;100427.38;5054543;28;20040;-80
2022/05/24 09:10:38;;;;;;;5.78;3.42;;;;;;;14.17;67.86;100429.94;5036169;28;19924;-81
2022/05/24 09:13:28;;;;;;;8.93;3.35;;;;;;;14.23;67.20;100434.13;5053995;28;20144;-82
2022/05/24 09:15:57;;;;;;;6.95;3.20;;;;;;;14.23;67.49;100439.44;5052718;28;20037;-81
2022/05/24 09:18:34;;;;;;;8.38;3.20;;;;;;;14.20;67.46;100443.97;5035027;28;20037;-81
2022/05/24 09:21:00;;;;;;;7.38;3.67;;;;;;;14.17;67.37;100451.22;5054172;28;20041;-82
2022/05/24 09:23:33;;;;;;;8.40;3.88;;;;;;;14.14;67.86;100454.00;5026206;28;20030;-82
2022/05/24 09:26:00;;;;;;;7.72;3.72;;;;;;;14.13;67.51;100450.47;5016192;28;20041;-81
2022/05/24 09:28:40;;;;;;;7.03;3.10;;;;;;;14.21;66.42;100455.47;5016471;28;20393;-81
2022/05/24 09:31:07;;;;;;;8.65;3.40;;;;;;;14.17;65.93;100457.41;5026774;28;20033;-81
2022/05/24 09:33:40;;;;;;;6.60;3.50;;;;;;;14.15;66.57;100461.94;5054342;28;20137;-81
2022/05/24 09:36:06;;;;;;;4.40;2.88;;;;;;;14.19;67.41;100462.66;5039747;28;20037;-81
2022/05/24 09:38:39;;;;;;;10.20;3.10;;;;;;;14.22;66.42;100461.66;5015970;28;20037;-81
2022/05/24 09:41:22;;;;;;;4.20;3.38;;;;;;;14.18;67.25;100480.44;5033874;28;20109;-81
2022/05/24 09:44:03;;;;;;;7.57;3.85;;;;;;;14.28;66.28;100480.91;5033872;28;20116;-81
2022/05/24 09:46:30;;;;;;;7.05;3.78;;;;;;;14.37;65.69;100487.66;5033754;28;20030;-81
2022/05/24 09:49:21;;;;;;;7.20;3.72;;;;;;;14.49;65.66;100495.13;5015959;28;20178;-81
2022/05/24 09:51:48;;;;;;;7.80;4.13;;;;;;;14.57;65.27;100481.50;5043793;28;20047;-81
2022/05/24 09:54:20;;;;;;;8.70;3.70;;;;;;;14.86;64.06;100479.31;5052087;28;20453;-82
2022/05/24 09:57:01;;;;;;;6.82;3.53;;;;;;;15.00;63.80;100484.88;5053401;28;20087;-82
2022/05/24 09:59:28;;;;;;;6.47;3.53;;;;;;;14.90;63.41;100479.09;5035796;28;20195;-82
2022/05/24 10:01:55;;;;;;;4.65;3.20;;;;;;;14.92;64.70;100487.91;5053152;28;20048;-81
2022/05/24 10:04:35;;;;;;;5.28;2.67;;;;;;;14.79;63.07;100497.41;5052493;28;20063;-82
2022/05/24 10:07:08;;;;;;;4.93;2.55;;;;;;;14.69;62.24;100490.72;5032977;28;20522;-81
2022/05/24 10:10:13;;;;;;;9.43;2.60;;;;;;;14.53;62.76;100496.72;4997688;28;20039;-81
2022/05/24 10:12:50;;;;;;;4.65;2.80;;;;;;;14.36;63.67;100501.91;5031832;28;20056;-81
2022/05/24 10:15:31;;;;;;;6.15;2.58;;;;;;;14.31;65.04;100507.41;5031527;28;20041;-81
2022/05/24 10:18:31;;;;;;;10.90;2.60;;;;;;;14.40;65.52;100511.50;5027962;28;20127;-81
2022/05/24 10:21:12;;;;;;;4.53;2.10;;;;;;;14.45;66.17;100521.97;5014462;28;20170;-82
2022/05/24 10:23:57;;;;;;;;;;;;;;;14.50;63.93;100522.63;5007011;28;20037;-81
2022/05/24 10:26:51;;;;;;;9.32;2.03;;;;;;;14.53;63.95;100519.81;5013452;28;19917;-81
2022/05/24 10:29:43;;;;;;;4.45;1.80;;;;;;;14.64;63.12;100525.59;5030640;28;20481;-80
2022/05/24 10:38:20;;;;;;;6.07;2.08;;;;;;;14.51;63.33;100543.00;5051997;28;20120;-80
2022/05/24 10:41:26;;;;;;;4.30;2.30;;;;;;;14.33;64.31;100553.50;5051520;28;20033;-80
2022/05/24 10:44:13;;;;;;;4.47;2.35;;;;;;;14.33;65.57;100548.19;5009385;28;20409;-80
2022/05/24 10:46:43;;;;;;;3.80;1.80;;;;;;;14.53;64.84;100552.69;5050514;28;20061;-80
2022/05/24 10:49:26;;;;;;;5.45;1.92;;;;;;;14.82;64.51;100550.56;5051382;28;20036;-80
2022/05/24 10:52:04;;;;;;;3.75;1.50;;;;;;;14.90;63.73;100550.22;5051175;28;20102;-80
2022/05/24 10:54:50;;;;;;;4.18;1.35;;;;;;;14.91;61.76;100551.94;5050009;28;20110;-81
2022/05/24 10:57:22;;;;;;;5.95;1.70;;;;;;;14.82;61.26;100543.44;5016733;28;20140;-80
2022/05/24 11:00:01;;;;;;;3.60;1.48;;;;;;;15.14;61.81;100537.59;5033465;28;20168;-81
2022/05/24 11:02:59;;;;;;;4.20;1.60;;;;;;;15.56;61.38;100533.88;5049994;28;20362;-80
2022/05/24 11:05:29;;;;;;;4.00;1.50;;;;;;;16.08;60.30;100539.38;5033041;28;20069;-81
2022/05/24 11:08:23;;;;;;;5.47;2.08;;;;;;;16.23;57.42;100538.63;5051433;28;20044;-82
2022/05/24 11:10:50;;;;;;;5.03;1.77;;;;;;;16.32;57.91;100529.28;5049742;28;20492;-81
2022/05/24 11:13:22;;;;;;;6.00;2.35;;;;;;;16.41;57.13;100528.78;5032961;28;20040;-80
2022/05/24 11:16:00;;;;;;;4.15;2.30;;;;;;;16.59;57.20;100528.78;5032993;28;20109;-81
2022/05/24 11:18:26;;;;;;;5.07;2.03;;;;;;;16.63;56.57;100528.56;5040400;28;20650;-81
2022/05/24 11:20:58;;;;;;;4.30;1.95;;;;;;;16.66;56.77;100520.38;5031518;28;20091;-80
2022/05/24 11:23:41;;;;;;;4.55;2.00;;;;;;;16.53;56.74;100527.31;5041064;28;20115;-81
2022/05/24 11:26:20;;;;;;;3.25;1.92;;;;;;;16.24;59.65;100553.69;5051323;28;20037;-81
2022/05/24 11:28:53;;;;;;;3.15;1.92;;;;;;;16.03;62.98;100552.97;5033263;28;20095;-82
2022/05/24 11:31:37;;;;;;;6.78;2.30;;;;;;;15.62;62.94;100555.78;5034692;28;20076;-83
2022/05/24 11:34:12;;;;;;;6.57;2.00;;;;;;;15.10;63.12;100558.19;5013653;28;20045;-83
2022/05/24 11:36:42;;;;;;;3.38;1.70;;;;;;;15.21;68.12;100557.72;5048793;28;20029;-84
2022/05/24 11:39:23;;;;;;;5.55;1.88;;;;;;;15.52;70.65;100565.16;5017880;28;20422;-84
2022/05/24 11:41:49;;;;;;;3.10;2.00;;;;;;;15.64;67.48;100553.03;5033745;28;20059;-92
2022/05/24 11:44:30;;;;;;;3.55;2.33;;;;;;;15.84;67.48;100560.13;5001109;28;20349;-84
2022/05/24 11:46:56;;;;;;;2.70;1.90;;;;;;;16.02;66.18;100561.03;5017517;28;20445;-84
2022/05/24 11:49:21;;;;;;;3.70;1.88;;;;;;;16.01;62.83;100552.16;5017165;28;20033;-85
2022/05/24 11:51:55;;;;;;;8.00;1.92;;;;;;;16.30;64.16;100558.75;5022454;28;20030;-84
2022/05/24 11:54:21;;;;;;;4.28;1.70;;;;;;;16.54;61.38;100559.31;5014325;28;20044;-85
2022/05/24 11:57:07;;;;;;;2.92;1.75;;;;;;;16.66;61.00;100557.78;5031718;28;20025;-85
2022/05/24 11:59:48;;;;;;;5.93;1.90;;;;;;;16.86;61.91;100556.78;4987573;28;20444;-85
2022/05/24 12:02:25;;;;;;;2.55;1.90;;;;;;;16.90;60.00;100558.38;5030409;28;20152;-83
2022/05/24 12:07:55;;;;;;;2.28;1.65;;;;;;;16.75;57.59;100577.88;5013693;28;20038;-84
2022/05/24 12:10:21;;;;;;;3.70;1.55;;;;;;;16.49;59.09;100577.41;5029906;28;20064;-83
2022/05/24 12:13:03;;;;;;;2.10;1.40;;;;;;;16.44;58.25;100587.44;5013418;28;20084;-83
2022/05/24 12:15:34;;;;;;;2.88;1.48;;;;;;;16.29;55.56;100593.53;5030602;28;20166;-83
2022/05/24 12:17:59;;;;;;;1.58;0.82;;;;;;;16.22;55.33;100598.34;5040745;28;20056;-83